sensor_id;sensor_type;location;lat;lon;timestamp;pressure;altitude;pressure_sealevel;temperature;humidity
16595;BME280;8410;52.532;13.336;2023-01-30T00:00:52;100905.78;;;4.76;76.09
16595;BME280;8410;52.532;13.336;2023-01-30T00:03:21;100889.03;;;4.18;77.40
16595;BME280;8410;52.532;13.336;2023-01-30T00:05:49;100885.09;;;4.48;78.17
16595;BME280;8410;52.532;13.336;2023-01-30T00:08:17;100857.59;;;4.84;76.45
16595;BME280;8410;52.532;13.336;2023-01-30T00:10:46;100867.66;;;3.94;79.91
16595;BME280;8410;52.532;13.336;2023-01-30T00:13:14;100851.28;;;4.74;76.47
16595;BME280;8410;52.532;13.336;2023-01-30T00:15:42;100844.63;;;4.55;78.14
16595;BME280;8410;52.532;13.336;2023-01-30T00:18:10;100854.84;;;4.13;78.48
16595;BME280;8410;52.532;13.336;2023-01-30T00:20:37;100857.16;;;3.46;81.26
16595;BME280;8410;52.532;13.336;2023-01-30T00:23:05;100844.38;;;4.72;78.19
16595;BME280;8410;52.532;13.336;2023-01-30T00:25:32;100845.59;;;5.28;76.26
16595;BME280;8410;52.532;13.336;2023-01-30T00:28:01;100821.41;;;4.94;76.06
16595;BME280;8410;52.532;13.336;2023-01-30T00:30:29;100816.38;;;5.20;75.62
16595;BME280;8410;52.532;13.336;2023-01-30T00:32:57;100799.47;;;4.53;78.54
16595;BME280;8410;52.532;13.336;2023-01-30T00:35:25;100784.31;;;4.80;74.83
16595;BME280;8410;52.532;13.336;2023-01-30T00:37:55;100773.63;;;3.98;78.37
16595;BME280;8410;52.532;13.336;2023-01-30T00:40:24;100766.84;;;4.67;78.45
16595;BME280;8410;52.532;13.336;2023-01-30T00:42:52;100745.22;;;5.03;77.05
16595;BME280;8410;52.532;13.336;2023-01-30T00:45:43;100736.16;;;4.18;78.45
16595;BME280;8410;52.532;13.336;2023-01-30T00:48:30;100732.72;;;4.40;78.63
16595;BME280;8410;52.532;13.336;2023-01-30T00:50:57;100721.78;;;5.15;76.09
16595;BME280;8410;52.532;13.336;2023-01-30T00:53:25;100708.06;;;5.12;75.51
16595;BME280;8410;52.532;13.336;2023-01-30T00:55:53;100702.63;;;5.02;74.65
16595;BME280;8410;52.532;13.336;2023-01-30T00:58:22;100687.44;;;5.58;74.60
16595;BME280;8410;52.532;13.336;2023-01-30T01:00:51;100704.09;;;5.20;74.22
16595;BME280;8410;52.532;13.336;2023-01-30T01:03:19;100705.41;;;3.91;77.00
16595;BME280;8410;52.532;13.336;2023-01-30T01:05:47;100698.16;;;4.47;78.14
16595;BME280;8410;52.532;13.336;2023-01-30T01:08:15;100709.75;;;4.39;76.98
16595;BME280;8410;52.532;13.336;2023-01-30T01:10:42;100692.34;;;4.75;77.38
16595;BME280;8410;52.532;13.336;2023-01-30T01:13:10;100685.00;;;5.08;75.22
16595;BME280;8410;52.532;13.336;2023-01-30T01:15:37;100680.56;;;4.31;78.36
16595;BME280;8410;52.532;13.336;2023-01-30T01:18:06;100635.53;;;4.79;77.35
16595;BME280;8410;52.532;13.336;2023-01-30T01:20:34;100626.88;;;4.26;78.12
16595;BME280;8410;52.532;13.336;2023-01-30T01:23:01;100629.59;;;4.55;77.41
16595;BME280;8410;52.532;13.336;2023-01-30T01:25:28;100633.56;;;4.96;78.58
16595;BME280;8410;52.532;13.336;2023-01-30T01:27:56;100628.38;;;5.20;76.26
16595;BME280;8410;52.532;13.336;2023-01-30T01:30:23;100620.25;;;4.79;78.69
16595;BME280;8410;52.532;13.336;2023-01-30T01:32:51;100637.06;;;4.26;78.76
16595;BME280;8410;52.532;13.336;2023-01-30T01:35:20;100622.75;;;4.30;79.72
16595;BME280;8410;52.532;13.336;2023-01-30T01:37:47;100615.59;;;5.19;77.16
16595;BME280;8410;52.532;13.336;2023-01-30T01:40:20;100639.34;;;5.18;76.00
16595;BME280;8410;52.532;13.336;2023-01-30T01:43:14;100646.72;;;4.83;75.69
16595;BME280;8410;52.532;13.336;2023-01-30T01:45:42;100637.03;;;4.98;75.92
16595;BME280;8410;52.532;13.336;2023-01-30T01:48:14;100638.47;;;4.90;76.03
16595;BME280;8410;52.532;13.336;2023-01-30T01:50:46;100641.53;;;5.05;75.63
16595;BME280;8410;52.532;13.336;2023-01-30T01:53:18;100624.94;;;4.93;74.41
16595;BME280;8410;52.532;13.336;2023-01-30T01:55:49;100622.16;;;4.37;75.98
16595;BME280;8410;52.532;13.336;2023-01-30T01:58:22;100609.91;;;4.27;78.47
16595;BME280;8410;52.532;13.336;2023-01-30T02:00:52;100593.16;;;4.83;77.58
16595;BME280;8410;52.532;13.336;2023-01-30T02:03:24;100589.25;;;4.94;77.65
16595;BME280;8410;52.532;13.336;2023-01-30T02:05:56;100578.41;;;4.74;77.06
16595;BME280;8410;52.532;13.336;2023-01-30T02:08:26;100555.41;;;4.47;79.68
16595;BME280;8410;52.532;13.336;2023-01-30T02:10:59;100555.94;;;5.44;78.78
16595;BME280;8410;52.532;13.336;2023-01-30T02:13:30;100549.44;;;5.25;78.62
16595;BME280;8410;52.532;13.336;2023-01-30T02:16:02;100543.88;;;4.58;80.90
16595;BME280;8410;52.532;13.336;2023-01-30T02:18:31;100530.50;;;4.14;81.92
16595;BME280;8410;52.532;13.336;2023-01-30T02:21:17;100520.81;;;4.04;84.53
16595;BME280;8410;52.532;13.336;2023-01-30T02:24:13;100491.56;;;4.18;84.21
16595;BME280;8410;52.532;13.336;2023-01-30T02:26:51;100509.41;;;4.70;82.64
16595;BME280;8410;52.532;13.336;2023-01-30T02:32:49;100503.75;;;4.02;84.49
16595;BME280;8410;52.532;13.336;2023-01-30T02:35:26;100503.91;;;4.32;83.85
16595;BME280;8410;52.532;13.336;2023-01-30T02:38:06;100493.84;;;4.62;82.48
16595;BME280;8410;52.532;13.336;2023-01-30T02:40:43;100489.84;;;4.17;85.02
16595;BME280;8410;52.532;13.336;2023-01-30T02:43:20;100486.47;;;4.18;84.97
16595;BME280;8410;52.532;13.336;2023-01-30T02:45:55;100470.09;;;4.36;85.72
16595;BME280;8410;52.532;13.336;2023-01-30T02:48:33;100460.69;;;4.09;86.83
16595;BME280;8410;52.532;13.336;2023-01-30T02:51:04;100472.72;;;4.13;87.72
16595;BME280;8410;52.532;13.336;2023-01-30T02:53:33;100449.50;;;4.57;85.84
16595;BME280;8410;52.532;13.336;2023-01-30T02:56:02;100445.38;;;4.60;86.06
16595;BME280;8410;52.532;13.336;2023-01-30T02:58:34;100444.97;;;4.75;82.36
16595;BME280;8410;52.532;13.336;2023-01-30T03:01:17;100435.47;;;4.70;83.22
16595;BME280;8410;52.532;13.336;2023-01-30T03:04:00;100429.50;;;4.42;86.09
16595;BME280;8410;52.532;13.336;2023-01-30T03:06:44;100428.78;;;3.95;87.82
16595;BME280;8410;52.532;13.336;2023-01-30T03:09:20;100420.75;;;4.08;87.87
16595;BME280;8410;52.532;13.336;2023-01-30T03:11:59;100401.97;;;4.86;83.38
16595;BME280;8410;52.532;13.336;2023-01-30T03:14:32;100403.25;;;3.68;88.05
16595;BME280;8410;52.532;13.336;2023-01-30T03:17:05;100410.00;;;3.91;86.99
16595;BME280;8410;52.532;13.336;2023-01-30T03:19:36;100398.19;;;3.93;88.99
16595;BME280;8410;52.532;13.336;2023-01-30T03:22:04;100384.88;;;4.28;86.22
16595;BME280;8410;52.532;13.336;2023-01-30T03:24:31;100385.41;;;4.17;87.07
16595;BME280;8410;52.532;13.336;2023-01-30T03:27:02;100380.28;;;5.00;85.08
16595;BME280;8410;52.532;13.336;2023-01-30T03:29:32;100379.00;;;4.57;83.26
16595;BME280;8410;52.532;13.336;2023-01-30T03:31:59;100379.09;;;3.82;86.63
16595;BME280;8410;52.532;13.336;2023-01-30T03:34:27;100369.91;;;4.66;86.39
16595;BME280;8410;52.532;13.336;2023-01-30T03:36:56;100378.19;;;4.87;83.04
16595;BME280;8410;52.532;13.336;2023-01-30T03:39:24;100374.91;;;4.91;83.00
16595;BME280;8410;52.532;13.336;2023-01-30T03:41:52;100363.00;;;4.90;84.06
16595;BME280;8410;52.532;13.336;2023-01-30T03:44:20;100355.47;;;5.25;83.05
16595;BME280;8410;52.532;13.336;2023-01-30T03:46:47;100346.84;;;4.91;84.91
16595;BME280;8410;52.532;13.336;2023-01-30T03:49:15;100346.38;;;4.74;83.87
16595;BME280;8410;52.532;13.336;2023-01-30T03:51:43;100339.47;;;5.00;84.06
16595;BME280;8410;52.532;13.336;2023-01-30T03:54:12;100343.22;;;4.83;84.17
16595;BME280;8410;52.532;13.336;2023-01-30T03:56:39;100326.16;;;5.11;85.85
16595;BME280;8410;52.532;13.336;2023-01-30T03:59:07;100323.22;;;5.60;82.94
16595;BME280;8410;52.532;13.336;2023-01-30T04:01:34;100320.47;;;5.52;84.52
16595;BME280;8410;52.532;13.336;2023-01-30T04:04:02;100319.59;;;5.19;83.40
16595;BME280;8410;52.532;13.336;2023-01-30T04:06:30;100296.97;;;4.42;86.91
16595;BME280;8410;52.532;13.336;2023-01-30T04:08:57;100293.91;;;4.82;86.11
16595;BME280;8410;52.532;13.336;2023-01-30T04:11:26;100291.50;;;4.87;86.80
16595;BME280;8410;52.532;13.336;2023-01-30T04:13:53;100291.88;;;4.42;85.68
16595;BME280;8410;52.532;13.336;2023-01-30T04:16:23;100290.78;;;4.62;85.52
16595;BME280;8410;52.532;13.336;2023-01-30T04:18:51;100291.94;;;4.16;86.99
16595;BME280;8410;52.532;13.336;2023-01-30T04:21:19;100286.19;;;4.81;86.07
16595;BME280;8410;52.532;13.336;2023-01-30T04:23:47;100284.03;;;4.64;87.60
16595;BME280;8410;52.532;13.336;2023-01-30T04:26:14;100272.97;;;4.94;85.29
16595;BME280;8410;52.532;13.336;2023-01-30T04:28:43;100273.72;;;5.22;85.78
16595;BME280;8410;52.532;13.336;2023-01-30T04:31:11;100270.75;;;5.38;83.46
16595;BME280;8410;52.532;13.336;2023-01-30T04:33:38;100278.44;;;5.73;83.06
16595;BME280;8410;52.532;13.336;2023-01-30T04:36:08;100268.34;;;4.81;84.66
16595;BME280;8410;52.532;13.336;2023-01-30T04:38:36;100264.16;;;4.53;85.20
16595;BME280;8410;52.532;13.336;2023-01-30T04:41:04;100258.22;;;5.16;85.87
16595;BME280;8410;52.532;13.336;2023-01-30T04:43:31;100268.41;;;5.14;84.73
16595;BME280;8410;52.532;13.336;2023-01-30T04:46:00;100252.47;;;4.91;86.12
16595;BME280;8410;52.532;13.336;2023-01-30T04:48:28;100250.66;;;4.57;87.35
16595;BME280;8410;52.532;13.336;2023-01-30T04:50:55;100249.63;;;4.50;86.84
16595;BME280;8410;52.532;13.336;2023-01-30T04:53:24;100250.28;;;5.05;87.83
16595;BME280;8410;52.532;13.336;2023-01-30T04:55:51;100243.03;;;5.19;86.83
16595;BME280;8410;52.532;13.336;2023-01-30T04:58:18;100242.94;;;5.16;85.95
16595;BME280;8410;52.532;13.336;2023-01-30T05:00:47;100242.53;;;5.00;87.89
16595;BME280;8410;52.532;13.336;2023-01-30T05:03:16;100238.91;;;5.24;87.33
16595;BME280;8410;52.532;13.336;2023-01-30T05:05:45;100229.44;;;4.88;87.11
16595;BME280;8410;52.532;13.336;2023-01-30T05:08:14;100224.25;;;4.85;90.14
16595;BME280;8410;52.532;13.336;2023-01-30T05:10:42;100229.03;;;4.14;91.56
16595;BME280;8410;52.532;13.336;2023-01-30T05:13:09;100224.91;;;4.17;93.07
16595;BME280;8410;52.532;13.336;2023-01-30T05:15:38;100221.22;;;4.67;91.26
16595;BME280;8410;52.532;13.336;2023-01-30T05:18:05;100218.44;;;4.29;93.86
16595;BME280;8410;52.532;13.336;2023-01-30T05:20:34;100211.31;;;4.47;91.95
16595;BME280;8410;52.532;13.336;2023-01-30T05:23:01;100211.91;;;4.69;93.27
16595;BME280;8410;52.532;13.336;2023-01-30T05:25:29;100208.16;;;5.19;92.01
16595;BME280;8410;52.532;13.336;2023-01-30T05:27:56;100203.91;;;5.20;89.74
16595;BME280;8410;52.532;13.336;2023-01-30T05:30:24;100192.53;;;5.07;90.94
16595;BME280;8410;52.532;13.336;2023-01-30T05:32:51;100186.63;;;4.46;90.98
16595;BME280;8410;52.532;13.336;2023-01-30T05:35:19;100186.00;;;5.17;89.75
16595;BME280;8410;52.532;13.336;2023-01-30T05:37:50;100172.31;;;4.50;91.07
16595;BME280;8410;52.532;13.336;2023-01-30T05:40:18;100169.75;;;4.50;92.57
16595;BME280;8410;52.532;13.336;2023-01-30T05:42:45;100168.19;;;5.20;92.19
16595;BME280;8410;52.532;13.336;2023-01-30T05:45:13;100159.56;;;5.15;89.31
16595;BME280;8410;52.532;13.336;2023-01-30T05:47:40;100154.31;;;5.08;90.49
16595;BME280;8410;52.532;13.336;2023-01-30T05:50:09;100157.22;;;4.57;92.79
16595;BME280;8410;52.532;13.336;2023-01-30T05:52:37;100142.28;;;5.04;91.31
16595;BME280;8410;52.532;13.336;2023-01-30T05:55:07;100139.06;;;5.48;89.83
16595;BME280;8410;52.532;13.336;2023-01-30T05:57:34;100139.22;;;5.18;90.67
16595;BME280;8410;52.532;13.336;2023-01-30T06:00:03;100124.22;;;5.30;90.33
16595;BME280;8410;52.532;13.336;2023-01-30T06:02:30;100122.84;;;5.08;91.68
16595;BME280;8410;52.532;13.336;2023-01-30T06:04:58;100125.66;;;5.19;90.06
16595;BME280;8410;52.532;13.336;2023-01-30T06:07:25;100130.09;;;5.27;91.14
16595;BME280;8410;52.532;13.336;2023-01-30T06:09:52;100135.09;;;4.88;90.92
16595;BME280;8410;52.532;13.336;2023-01-30T06:12:21;100128.56;;;4.99;92.83
16595;BME280;8410;52.532;13.336;2023-01-30T06:14:49;100132.13;;;4.73;94.17
16595;BME280;8410;52.532;13.336;2023-01-30T06:17:16;100122.63;;;5.35;92.07
16595;BME280;8410;52.532;13.336;2023-01-30T06:19:43;100128.72;;;5.05;93.34
16595;BME280;8410;52.532;13.336;2023-01-30T06:22:11;100117.03;;;5.14;92.80
16595;BME280;8410;52.532;13.336;2023-01-30T06:24:38;100123.97;;;4.86;93.45
16595;BME280;8410;52.532;13.336;2023-01-30T06:27:06;100128.47;;;5.31;92.16
16595;BME280;8410;52.532;13.336;2023-01-30T06:29:34;100118.31;;;5.33;91.74
16595;BME280;8410;52.532;13.336;2023-01-30T06:32:02;100129.13;;;5.22;91.68
16595;BME280;8410;52.532;13.336;2023-01-30T06:34:29;100136.47;;;5.45;93.61
16595;BME280;8410;52.532;13.336;2023-01-30T06:36:57;100124.50;;;5.80;91.79
16595;BME280;8410;52.532;13.336;2023-01-30T06:39:24;100134.03;;;5.15;91.10
16595;BME280;8410;52.532;13.336;2023-01-30T06:41:52;100138.03;;;5.03;93.01
16595;BME280;8410;52.532;13.336;2023-01-30T06:44:19;100136.72;;;4.86;93.19
16595;BME280;8410;52.532;13.336;2023-01-30T06:46:48;100140.16;;;5.58;92.08
16595;BME280;8410;52.532;13.336;2023-01-30T06:49:15;100130.22;;;5.32;92.54
16595;BME280;8410;52.532;13.336;2023-01-30T06:51:43;100118.59;;;5.08;94.16
16595;BME280;8410;52.532;13.336;2023-01-30T06:54:10;100120.69;;;5.25;93.11
16595;BME280;8410;52.532;13.336;2023-01-30T06:56:37;100108.34;;;5.81;93.23
16595;BME280;8410;52.532;13.336;2023-01-30T06:59:05;100112.19;;;5.26;92.68
16595;BME280;8410;52.532;13.336;2023-01-30T07:01:32;100111.75;;;5.07;94.71
16595;BME280;8410;52.532;13.336;2023-01-30T07:04:01;100105.00;;;5.09;96.60
16595;BME280;8410;52.532;13.336;2023-01-30T07:06:29;100109.19;;;5.06;97.10
16595;BME280;8410;52.532;13.336;2023-01-30T07:08:56;100106.34;;;5.30;98.04
16595;BME280;8410;52.532;13.336;2023-01-30T07:11:24;100102.09;;;5.67;96.20
16595;BME280;8410;52.532;13.336;2023-01-30T07:13:51;100102.97;;;4.96;95.15
16595;BME280;8410;52.532;13.336;2023-01-30T07:16:19;100093.38;;;5.96;95.33
16595;BME280;8410;52.532;13.336;2023-01-30T07:18:49;100095.25;;;5.28;94.04
16595;BME280;8410;52.532;13.336;2023-01-30T07:21:17;100093.72;;;5.74;95.60
16595;BME280;8410;52.532;13.336;2023-01-30T07:23:45;100094.94;;;5.16;96.79
16595;BME280;8410;52.532;13.336;2023-01-30T07:26:13;100090.41;;;5.80;96.17
16595;BME280;8410;52.532;13.336;2023-01-30T07:28:40;100079.66;;;5.53;94.43
16595;BME280;8410;52.532;13.336;2023-01-30T07:31:08;100085.50;;;6.28;93.63
16595;BME280;8410;52.532;13.336;2023-01-30T07:33:35;100083.19;;;5.59;95.06
16595;BME280;8410;52.532;13.336;2023-01-30T07:36:03;100082.22;;;5.55;95.90
16595;BME280;8410;52.532;13.336;2023-01-30T07:38:32;100087.97;;;5.08;97.12
16595;BME280;8410;52.532;13.336;2023-01-30T07:41:00;100090.63;;;5.89;97.60
16595;BME280;8410;52.532;13.336;2023-01-30T07:43:27;100098.88;;;6.15;95.92
16595;BME280;8410;52.532;13.336;2023-01-30T07:45:54;100097.22;;;5.79;94.54
16595;BME280;8410;52.532;13.336;2023-01-30T07:48:22;100092.63;;;5.63;95.59
16595;BME280;8410;52.532;13.336;2023-01-30T07:50:53;100100.91;;;5.52;96.58
16595;BME280;8410;52.532;13.336;2023-01-30T07:53:21;100106.63;;;5.80;97.85
16595;BME280;8410;52.532;13.336;2023-01-30T07:55:50;100101.47;;;5.04;100.00
16595;BME280;8410;52.532;13.336;2023-01-30T07:58:18;100113.34;;;5.39;99.23
16595;BME280;8410;52.532;13.336;2023-01-30T08:00:45;100109.41;;;5.51;100.00
16595;BME280;8410;52.532;13.336;2023-01-30T08:03:15;100109.16;;;6.18;97.52
16595;BME280;8410;52.532;13.336;2023-01-30T08:05:44;100112.34;;;6.52;94.13
16595;BME280;8410;52.532;13.336;2023-01-30T08:08:12;100108.34;;;6.21;94.76
16595;BME280;8410;52.532;13.336;2023-01-30T08:10:39;100109.91;;;6.59;93.02
16595;BME280;8410;52.532;13.336;2023-01-30T08:13:08;100103.91;;;6.57;94.21
16595;BME280;8410;52.532;13.336;2023-01-30T08:15:36;100098.72;;;6.53;93.09
16595;BME280;8410;52.532;13.336;2023-01-30T08:18:04;100101.22;;;6.04;96.57
16595;BME280;8410;52.532;13.336;2023-01-30T08:20:32;100093.56;;;6.06;96.70
16595;BME280;8410;52.532;13.336;2023-01-30T08:23:00;100099.44;;;5.62;99.75
16595;BME280;8410;52.532;13.336;2023-01-30T08:25:28;100091.53;;;6.33;98.65
16595;BME280;8410;52.532;13.336;2023-01-30T08:27:57;100087.91;;;6.66;96.03
16595;BME280;8410;52.532;13.336;2023-01-30T08:30:26;100073.34;;;6.63;93.02
16595;BME280;8410;52.532;13.336;2023-01-30T08:32:55;100071.06;;;5.89;98.62
16595;BME280;8410;52.532;13.336;2023-01-30T08:35:23;100086.00;;;6.57;97.80
16595;BME280;8410;52.532;13.336;2023-01-30T08:37:51;100096.38;;;6.65;94.00
16595;BME280;8410;52.532;13.336;2023-01-30T08:40:18;100101.59;;;6.24;96.38
16595;BME280;8410;52.532;13.336;2023-01-30T08:42:46;100103.72;;;6.03;96.22
16595;BME280;8410;52.532;13.336;2023-01-30T08:45:13;100099.25;;;6.35;97.75
16595;BME280;8410;52.532;13.336;2023-01-30T08:47:42;100090.75;;;6.83;96.75
16595;BME280;8410;52.532;13.336;2023-01-30T08:50:10;100099.94;;;6.73;93.45
16595;BME280;8410;52.532;13.336;2023-01-30T08:52:37;100101.91;;;6.41;93.92
16595;BME280;8410;52.532;13.336;2023-01-30T08:55:06;100095.63;;;6.71;93.16
16595;BME280;8410;52.532;13.336;2023-01-30T08:57:33;100086.34;;;6.76;92.38
16595;BME280;8410;52.532;13.336;2023-01-30T09:00:01;100094.38;;;6.49;95.15
16595;BME280;8410;52.532;13.336;2023-01-30T09:02:29;100091.97;;;6.55;94.38
16595;BME280;8410;52.532;13.336;2023-01-30T09:04:58;100087.53;;;6.96;93.46
16595;BME280;8410;52.532;13.336;2023-01-30T09:07:25;100086.47;;;6.83;94.81
16595;BME280;8410;52.532;13.336;2023-01-30T09:09:54;100096.63;;;6.77;91.86
16595;BME280;8410;52.532;13.336;2023-01-30T09:12:22;100096.31;;;7.11;93.82
16595;BME280;8410;52.532;13.336;2023-01-30T09:14:49;100090.19;;;7.59;91.97
16595;BME280;8410;52.532;13.336;2023-01-30T09:17:18;100092.50;;;6.85;93.08
16595;BME280;8410;52.532;13.336;2023-01-30T09:19:45;100093.34;;;7.39;92.72
16595;BME280;8410;52.532;13.336;2023-01-30T09:22:15;100102.34;;;7.72;89.84
16595;BME280;8410;52.532;13.336;2023-01-30T09:24:42;100102.28;;;7.69;89.37
16595;BME280;8410;52.532;13.336;2023-01-30T09:27:10;100102.44;;;7.20;92.05
16595;BME280;8410;52.532;13.336;2023-01-30T09:29:37;100096.81;;;8.05;89.98
16595;BME280;8410;52.532;13.336;2023-01-30T09:32:05;100101.66;;;7.85;88.09
16595;BME280;8410;52.532;13.336;2023-01-30T09:34:32;100101.13;;;7.47;91.32
16595;BME280;8410;52.532;13.336;2023-01-30T09:37:00;100091.31;;;7.17;92.25
16595;BME280;8410;52.532;13.336;2023-01-30T09:39:31;100105.63;;;7.07;91.02
16595;BME280;8410;52.532;13.336;2023-01-30T09:42:13;100101.44;;;6.62;93.48
16595;BME280;8410;52.532;13.336;2023-01-30T09:45:20;100102.19;;;7.05;93.29
16595;BME280;8410;52.532;13.336;2023-01-30T09:47:56;100093.78;;;7.71;92.03
16595;BME280;8410;52.532;13.336;2023-01-30T09:50:42;100095.16;;;7.48;90.51
16595;BME280;8410;52.532;13.336;2023-01-30T09:53:17;100095.19;;;7.51;88.25
16595;BME280;8410;52.532;13.336;2023-01-30T09:55:49;100095.00;;;7.36;92.35
16595;BME280;8410;52.532;13.336;2023-01-30T09:58:18;100086.69;;;6.97;91.72
16595;BME280;8410;52.532;13.336;2023-01-30T10:00:48;100090.66;;;7.32;90.71
16595;BME280;8410;52.532;13.336;2023-01-30T10:03:20;100092.28;;;7.26;91.08
16595;BME280;8410;52.532;13.336;2023-01-30T10:05:53;100084.72;;;6.79;90.94
16595;BME280;8410;52.532;13.336;2023-01-30T10:08:45;100093.41;;;7.45;90.23
16595;BME280;8410;52.532;13.336;2023-01-30T10:11:25;100087.00;;;7.75;89.26
16595;BME280;8410;52.532;13.336;2023-01-30T10:14:11;100086.19;;;7.78;88.37
16595;BME280;8410;52.532;13.336;2023-01-30T10:16:43;100082.84;;;7.82;87.27
16595;BME280;8410;52.532;13.336;2023-01-30T10:19:22;100088.16;;;7.97;87.10
16595;BME280;8410;52.532;13.336;2023-01-30T10:22:09;100089.94;;;7.40;86.44
16595;BME280;8410;52.532;13.336;2023-01-30T10:24:50;100102.41;;;7.17;86.88
16595;BME280;8410;52.532;13.336;2023-01-30T10:27:24;100102.47;;;7.23;87.39
16595;BME280;8410;52.532;13.336;2023-01-30T10:29:55;100095.81;;;7.35;86.20
16595;BME280;8410;52.532;13.336;2023-01-30T10:32:28;100099.66;;;7.64;85.93
16595;BME280;8410;52.532;13.336;2023-01-30T10:35:01;100097.56;;;7.97;86.47
16595;BME280;8410;52.532;13.336;2023-01-30T10:37:32;100090.66;;;7.32;84.67
16595;BME280;8410;52.532;13.336;2023-01-30T10:40:11;100082.41;;;7.51;84.81
16595;BME280;8410;52.532;13.336;2023-01-30T10:42:48;100084.59;;;7.26;83.98
16595;BME280;8410;52.532;13.336;2023-01-30T10:45:19;100075.78;;;7.06;84.26
16595;BME280;8410;52.532;13.336;2023-01-30T10:48:00;100088.34;;;6.94;83.89
16595;BME280;8410;52.532;13.336;2023-01-30T10:50:41;100079.03;;;6.97;83.80
16595;BME280;8410;52.532;13.336;2023-01-30T10:53:16;100070.00;;;7.19;83.37
16595;BME280;8410;52.532;13.336;2023-01-30T10:55:50;100077.66;;;7.18;81.85
16595;BME280;8410;52.532;13.336;2023-01-30T10:58:26;100070.69;;;7.09;83.10
16595;BME280;8410;52.532;13.336;2023-01-30T11:00:59;100071.03;;;6.77;84.18
16595;BME280;8410;52.532;13.336;2023-01-30T11:03:34;100068.91;;;7.05;82.78
16595;BME280;8410;52.532;13.336;2023-01-30T11:06:06;100060.91;;;7.40;82.34
16595;BME280;8410;52.532;13.336;2023-01-30T11:08:36;100052.25;;;7.94;79.92
16595;BME280;8410;52.532;13.336;2023-01-30T11:11:21;100056.03;;;7.58;80.93
16595;BME280;8410;52.532;13.336;2023-01-30T11:13:59;100052.97;;;7.85;80.73
16595;BME280;8410;52.532;13.336;2023-01-30T11:16:27;100043.22;;;7.58;81.20
16595;BME280;8410;52.532;13.336;2023-01-30T11:18:55;100040.63;;;8.24;80.62
16595;BME280;8410;52.532;13.336;2023-01-30T11:21:47;100032.50;;;7.87;79.71
16595;BME280;8410;52.532;13.336;2023-01-30T11:24:18;100028.91;;;7.71;81.21
16595;BME280;8410;52.532;13.336;2023-01-30T11:26:47;100016.53;;;8.12;79.84
16595;BME280;8410;52.532;13.336;2023-01-30T11:29:24;100016.41;;;7.30;80.70
16595;BME280;8410;52.532;13.336;2023-01-30T11:31:53;100013.03;;;7.33;82.09
16595;BME280;8410;52.532;13.336;2023-01-30T11:34:23;100012.94;;;7.95;80.35
16595;BME280;8410;52.532;13.336;2023-01-30T11:36:50;99995.53;;;7.66;80.50
16595;BME280;8410;52.532;13.336;2023-01-30T11:39:21;100000.72;;;7.71;80.02
16595;BME280;8410;52.532;13.336;2023-01-30T11:41:58;99990.06;;;8.10;78.56
16595;BME280;8410;52.532;13.336;2023-01-30T11:44:30;99993.31;;;7.95;78.87
16595;BME280;8410;52.532;13.336;2023-01-30T11:46:59;100017.75;;;7.67;80.11
16595;BME280;8410;52.532;13.336;2023-01-30T11:49:32;99996.97;;;6.87;82.08
16595;BME280;8410;52.532;13.336;2023-01-30T11:52:25;99994.72;;;6.52;84.89
16595;BME280;8410;52.532;13.336;2023-01-30T11:54:57;99989.19;;;6.27;87.31
16595;BME280;8410;52.532;13.336;2023-01-30T11:57:28;100018.53;;;6.02;90.49
16595;BME280;8410;52.532;13.336;2023-01-30T11:59:59;100024.22;;;5.89;91.54
16595;BME280;8410;52.532;13.336;2023-01-30T12:02:30;100001.19;;;5.87;92.85
16595;BME280;8410;52.532;13.336;2023-01-30T12:05:00;100013.34;;;5.97;94.31
16595;BME280;8410;52.532;13.336;2023-01-30T12:07:29;100011.59;;;5.56;95.55
16595;BME280;8410;52.532;13.336;2023-01-30T12:09:58;99984.47;;;6.02;96.44
16595;BME280;8410;52.532;13.336;2023-01-30T12:12:31;99974.50;;;6.17;93.18
16595;BME280;8410;52.532;13.336;2023-01-30T12:15:13;99986.47;;;6.18;91.59
16595;BME280;8410;52.532;13.336;2023-01-30T12:17:46;99978.25;;;6.34;90.49
16595;BME280;8410;52.532;13.336;2023-01-30T12:20:22;99980.09;;;6.43;90.60
16595;BME280;8410;52.532;13.336;2023-01-30T12:22:58;99968.41;;;7.15;88.67
16595;BME280;8410;52.532;13.336;2023-01-30T12:25:32;99967.44;;;7.07;86.71
16595;BME280;8410;52.532;13.336;2023-01-30T12:28:03;99951.22;;;7.06;87.18
16595;BME280;8410;52.532;13.336;2023-01-30T12:30:41;99944.56;;;7.18;87.74
16595;BME280;8410;52.532;13.336;2023-01-30T12:33:13;99942.69;;;7.78;84.47
16595;BME280;8410;52.532;13.336;2023-01-30T12:35:56;99933.47;;;7.92;84.24
16595;BME280;8410;52.532;13.336;2023-01-30T12:38:38;99924.34;;;8.18;82.86
16595;BME280;8410;52.532;13.336;2023-01-30T12:41:21;99924.06;;;7.91;83.76
16595;BME280;8410;52.532;13.336;2023-01-30T12:44:02;99929.53;;;8.28;81.60
16595;BME280;8410;52.532;13.336;2023-01-30T12:46:47;99914.53;;;7.79;82.47
16595;BME280;8410;52.532;13.336;2023-01-30T12:49:33;99932.41;;;7.74;82.96
16595;BME280;8410;52.532;13.336;2023-01-30T12:52:21;99935.63;;;7.55;83.68
16595;BME280;8410;52.532;13.336;2023-01-30T12:55:06;99916.91;;;8.45;80.75
16595;BME280;8410;52.532;13.336;2023-01-30T12:57:50;99922.66;;;8.21;82.28
16595;BME280;8410;52.532;13.336;2023-01-30T13:00:29;99918.91;;;7.91;82.89
16595;BME280;8410;52.532;13.336;2023-01-30T13:03:15;99923.44;;;8.13;82.65
16595;BME280;8410;52.532;13.336;2023-01-30T13:05:50;99915.13;;;8.39;79.39
16595;BME280;8410;52.532;13.336;2023-01-30T13:08:31;99917.63;;;8.36;78.92
16595;BME280;8410;52.532;13.336;2023-01-30T13:11:11;99917.53;;;7.41;81.79
16595;BME280;8410;52.532;13.336;2023-01-30T13:13:46;99922.03;;;7.59;81.94
16595;BME280;8410;52.532;13.336;2023-01-30T13:16:22;99916.69;;;7.41;79.09
16595;BME280;8410;52.532;13.336;2023-01-30T13:18:59;99916.94;;;7.62;77.84
16595;BME280;8410;52.532;13.336;2023-01-30T13:21:33;99911.69;;;7.53;79.59
16595;BME280;8410;52.532;13.336;2023-01-30T13:24:16;99920.03;;;7.35;78.62
16595;BME280;8410;52.532;13.336;2023-01-30T13:26:48;99908.31;;;7.54;77.54